sensor_id;sensor_type;location;lat;lon;timestamp;pressure;altitude;pressure_sealevel;temperature;humidity
7990;BME280;4040;42.848;23.034;2024-03-06T00:01:17;94531.97;;;1.28;100.00
7990;BME280;4040;42.848;23.034;2024-03-06T00:03:45;94608.22;;;1.69;100.00
7990;BME280;4040;42.848;23.034;2024-03-06T00:06:12;94560.03;;;1.29;100.00
7990;BME280;4040;42.848;23.034;2024-03-06T00:08:39;94619.13;;;1.45;100.00
7990;BME280;4040;42.848;23.034;2024-03-06T00:11:07;94598.16;;;1.40;100.00
7990;BME280;4040;42.848;23.034;2024-03-06T00:13:36;94603.78;;;1.54;100.00
7990;BME280;4040;42.848;23.034;2024-03-06T00:16:04;94494.09;;;0.55;100.00
7990;BME280;4040;42.848;23.034;2024-03-06T00:18:31;94604.41;;;1.48;100.00
7990;BME280;4040;42.848;23.034;2024-03-06T00:20:59;94571.66;;;1.21;100.00
7990;BME280;4040;42.848;23.034;2024-03-06T00:23:26;94544.03;;;0.88;100.00
7990;BME280;4040;42.848;23.034;2024-03-06T00:25:53;94605.78;;;1.07;100.00
7990;BME280;4040;42.848;23.034;2024-03-06T00:28:21;94604.13;;;0.99;100.00
7990;BME280;4040;42.848;23.034;2024-03-06T00:30:50;94590.28;;;0.90;100.00
7990;BME280;4040;42.848;23.034;2024-03-06T00:33:17;94603.00;;;1.00;100.00
7990;BME280;4040;42.848;23.034;2024-03-06T00:35:44;94596.72;;;1.08;100.00
7990;BME280;4040;42.848;23.034;2024-03-06T00:38:12;94580.41;;;1.06;100.00
7990;BME280;4040;42.848;23.034;2024-03-06T00:40:40;94585.72;;;1.25;100.00
7990;BME280;4040;42.848;23.034;2024-03-06T00:43:08;94592.72;;;1.33;100.00
7990;BME280;4040;42.848;23.034;2024-03-06T00:45:35;94588.97;;;1.34;100.00
7990;BME280;4040;42.848;23.034;2024-03-06T00:48:05;94574.28;;;1.21;100.00
7990;BME280;4040;42.848;23.034;2024-03-06T00:50:32;94587.25;;;1.26;100.00
7990;BME280;4040;42.848;23.034;2024-03-06T00:53:00;94562.69;;;1.10;100.00
7990;BME280;4040;42.848;23.034;2024-03-06T00:55:27;94501.91;;;0.67;100.00
7990;BME280;4040;42.848;23.034;2024-03-06T00:57:54;94585.44;;;1.11;100.00
7990;BME280;4040;42.848;23.034;2024-03-06T01:00:22;94552.06;;;0.91;100.00
7990;BME280;4040;42.848;23.034;2024-03-06T01:02:50;94538.38;;;0.89;100.00
7990;BME280;4040;42.848;23.034;2024-03-06T01:05:19;94531.34;;;0.97;100.00
7990;BME280;4040;42.848;23.034;2024-03-06T01:07:46;94579.72;;;1.28;100.00
7990;BME280;4040;42.848;23.034;2024-03-06T01:10:14;94590.50;;;1.35;100.00
7990;BME280;4040;42.848;23.034;2024-03-06T01:12:41;94595.38;;;1.33;100.00
7990;BME280;4040;42.848;23.034;2024-03-06T01:15:14;94592.56;;;1.26;100.00
7990;BME280;4040;42.848;23.034;2024-03-06T01:17:42;94565.28;;;1.07;100.00
7990;BME280;4040;42.848;23.034;2024-03-06T01:20:10;94573.44;;;1.17;100.00
7990;BME280;4040;42.848;23.034;2024-03-06T01:22:39;94587.69;;;1.28;100.00
7990;BME280;4040;42.848;23.034;2024-03-06T01:25:07;94566.19;;;1.14;100.00
7990;BME280;4040;42.848;23.034;2024-03-06T01:27:35;94574.91;;;1.15;100.00
7990;BME280;4040;42.848;23.034;2024-03-06T01:30:03;94588.97;;;1.34;100.00
7990;BME280;4040;42.848;23.034;2024-03-06T01:32:30;94594.25;;;1.34;100.00
7990;BME280;4040;42.848;23.034;2024-03-06T01:34:59;94591.31;;;1.39;100.00
7990;BME280;4040;42.848;23.034;2024-03-06T01:37:26;94588.25;;;1.37;100.00
7990;BME280;4040;42.848;23.034;2024-03-06T01:39:55;94593.41;;;1.49;100.00
7990;BME280;4040;42.848;23.034;2024-03-06T01:42:22;94590.09;;;1.52;100.00
7990;BME280;4040;42.848;23.034;2024-03-06T01:44:50;94591.97;;;1.52;100.00
7990;BME280;4040;42.848;23.034;2024-03-06T01:47:17;94593.72;;;1.44;100.00
7990;BME280;4040;42.848;23.034;2024-03-06T01:49:44;94593.72;;;1.44;100.00
7990;BME280;4040;42.848;23.034;2024-03-06T01:52:13;94593.00;;;1.47;100.00
7990;BME280;4040;42.848;23.034;2024-03-06T01:54:42;94558.59;;;1.32;100.00
7990;BME280;4040;42.848;23.034;2024-03-06T01:57:11;94584.78;;;1.52;100.00
7990;BME280;4040;42.848;23.034;2024-03-06T01:59:40;94584.28;;;1.47;100.00
7990;BME280;4040;42.848;23.034;2024-03-06T02:02:08;94587.69;;;1.47;100.00
7990;BME280;4040;42.848;23.034;2024-03-06T02:04:37;94584.91;;;1.40;100.00
7990;BME280;4040;42.848;23.034;2024-03-06T02:07:08;94581.25;;;1.29;100.00
7990;BME280;4040;42.848;23.034;2024-03-06T02:09:37;94581.81;;;1.19;100.00
7990;BME280;4040;42.848;23.034;2024-03-06T02:12:05;94595.50;;;1.21;100.00
7990;BME280;4040;42.848;23.034;2024-03-06T02:14:35;94587.72;;;1.13;100.00
7990;BME280;4040;42.848;23.034;2024-03-06T02:17:03;94595.00;;;1.16;100.00
7990;BME280;4040;42.848;23.034;2024-03-06T02:19:40;94606.66;;;1.11;100.00
7990;BME280;4040;42.848;23.034;2024-03-06T02:22:10;94601.19;;;1.04;100.00
7990;BME280;4040;42.848;23.034;2024-03-06T02:24:42;94598.13;;;1.02;100.00
7990;BME280;4040;42.848;23.034;2024-03-06T02:27:09;94577.97;;;0.82;100.00
7990;BME280;4040;42.848;23.034;2024-03-06T02:29:36;94606.06;;;1.02;100.00
7990;BME280;4040;42.848;23.034;2024-03-06T02:32:05;94611.09;;;1.07;100.00
7990;BME280;4040;42.848;23.034;2024-03-06T02:34:32;94606.50;;;1.04;100.00
7990;BME280;4040;42.848;23.034;2024-03-06T02:36:59;94611.63;;;0.97;100.00
7990;BME280;4040;42.848;23.034;2024-03-06T02:39:28;94615.25;;;0.89;100.00
7990;BME280;4040;42.848;23.034;2024-03-06T02:41:56;94581.09;;;0.53;100.00
7990;BME280;4040;42.848;23.034;2024-03-06T02:44:23;94617.56;;;0.75;100.00
7990;BME280;4040;42.848;23.034;2024-03-06T02:46:50;94616.03;;;0.74;100.00
7990;BME280;4040;42.848;23.034;2024-03-06T02:49:18;94609.63;;;0.75;100.00
7990;BME280;4040;42.848;23.034;2024-03-06T02:51:46;94604.31;;;0.75;100.00
7990;BME280;4040;42.848;23.034;2024-03-06T02:54:13;94602.94;;;0.81;100.00
7990;BME280;4040;42.848;23.034;2024-03-06T02:56:42;94589.28;;;0.79;100.00
7990;BME280;4040;42.848;23.034;2024-03-06T02:59:09;94601.03;;;0.97;100.00
7990;BME280;4040;42.848;23.034;2024-03-06T03:01:36;94599.66;;;1.03;100.00
7990;BME280;4040;42.848;23.034;2024-03-06T03:04:04;94593.66;;;1.06;100.00
7990;BME280;4040;42.848;23.034;2024-03-06T03:06:32;94598.25;;;1.09;100.00
7990;BME280;4040;42.848;23.034;2024-03-06T03:09:00;94602.03;;;1.08;100.00
7990;BME280;4040;42.848;23.034;2024-03-06T03:11:27;94613.09;;;1.10;100.00
7990;BME280;4040;42.848;23.034;2024-03-06T03:13:56;94610.44;;;1.10;100.00
7990;BME280;4040;42.848;23.034;2024-03-06T03:16:24;94611.25;;;1.14;100.00
7990;BME280;4040;42.848;23.034;2024-03-06T03:18:51;94612.97;;;1.22;100.00
7990;BME280;4040;42.848;23.034;2024-03-06T03:21:18;94613.63;;;1.19;100.00
7990;BME280;4040;42.848;23.034;2024-03-06T03:23:46;94610.66;;;1.21;100.00
7990;BME280;4040;42.848;23.034;2024-03-06T03:26:14;94613.63;;;1.19;100.00
7990;BME280;4040;42.848;23.034;2024-03-06T03:28:41;94613.59;;;1.16;100.00
7990;BME280;4040;42.848;23.034;2024-03-06T03:31:10;94620.06;;;1.18;100.00
7990;BME280;4040;42.848;23.034;2024-03-06T03:33:39;94625.72;;;1.17;100.00
7990;BME280;4040;42.848;23.034;2024-03-06T03:36:07;94625.03;;;1.20;100.00
7990;BME280;4040;42.848;23.034;2024-03-06T03:38:34;94623.28;;;1.27;100.00
7990;BME280;4040;42.848;23.034;2024-03-06T03:41:07;94624.56;;;1.33;100.00
7990;BME280;4040;42.848;23.034;2024-03-06T03:43:35;94615.81;;;1.33;100.00
7990;BME280;4040;42.848;23.034;2024-03-06T03:46:02;94622.31;;;1.35;100.00
7990;BME280;4040;42.848;23.034;2024-03-06T03:48:31;94625.47;;;1.41;100.00
7990;BME280;4040;42.848;23.034;2024-03-06T03:51:01;94595.44;;;1.18;100.00
7990;BME280;4040;42.848;23.034;2024-03-06T03:53:30;94630.00;;;1.40;100.00
7990;BME280;4040;42.848;23.034;2024-03-06T03:55:57;94633.09;;;1.42;100.00
7990;BME280;4040;42.848;23.034;2024-03-06T03:58:25;94562.59;;;0.88;100.00
7990;BME280;4040;42.848;23.034;2024-03-06T04:00:52;94628.34;;;1.32;100.00
7990;BME280;4040;42.848;23.034;2024-03-06T04:03:21;94632.34;;;1.26;100.00
7990;BME280;4040;42.848;23.034;2024-03-06T04:05:51;94637.50;;;1.19;100.00
7990;BME280;4040;42.848;23.034;2024-03-06T04:08:18;94637.38;;;1.12;100.00
7990;BME280;4040;42.848;23.034;2024-03-06T04:10:46;94647.47;;;1.07;100.00
7990;BME280;4040;42.848;23.034;2024-03-06T04:13:15;94651.84;;;0.99;100.00
7990;BME280;4040;42.848;23.034;2024-03-06T04:15:45;94661.59;;;0.95;100.00
7990;BME280;4040;42.848;23.034;2024-03-06T04:18:12;94654.06;;;0.97;100.00
7990;BME280;4040;42.848;23.034;2024-03-06T04:20:40;94663.81;;;0.93;100.00
7990;BME280;4040;42.848;23.034;2024-03-06T04:23:09;94657.72;;;1.08;100.00
7990;BME280;4040;42.848;23.034;2024-03-06T04:25:36;94661.22;;;1.12;100.00
7990;BME280;4040;42.848;23.034;2024-03-06T04:28:05;94661.97;;;1.28;100.00
7990;BME280;4040;42.848;23.034;2024-03-06T04:30:34;94659.06;;;1.33;100.00
7990;BME280;4040;42.848;23.034;2024-03-06T04:33:01;94666.38;;;1.40;100.00
7990;BME280;4040;42.848;23.034;2024-03-06T04:35:29;94668.84;;;1.48;100.00
7990;BME280;4040;42.848;23.034;2024-03-06T04:37:56;94583.34;;;1.01;100.00
7990;BME280;4040;42.848;23.034;2024-03-06T04:40:25;94668.13;;;1.51;100.00
7990;BME280;4040;42.848;23.034;2024-03-06T04:42:54;94674.63;;;1.54;100.00
7990;BME280;4040;42.848;23.034;2024-03-06T04:45:21;94601.63;;;1.06;100.00
7990;BME280;4040;42.848;23.034;2024-03-06T04:47:49;94679.31;;;1.60;100.00
7990;BME280;4040;42.848;23.034;2024-03-06T04:50:16;94661.44;;;1.57;100.00
7990;BME280;4040;42.848;23.034;2024-03-06T04:52:44;94682.41;;;1.81;100.00
7990;BME280;4040;42.848;23.034;2024-03-06T04:55:11;94690.28;;;1.93;100.00
7990;BME280;4040;42.848;23.034;2024-03-06T04:57:43;94682.84;;;2.02;100.00
7990;BME280;4040;42.848;23.034;2024-03-06T05:00:12;94689.75;;;2.07;100.00
7990;BME280;4040;42.848;23.034;2024-03-06T05:02:39;94689.19;;;2.17;100.00
7990;BME280;4040;42.848;23.034;2024-03-06T05:05:08;94700.03;;;2.27;100.00
7990;BME280;4040;42.848;23.034;2024-03-06T05:07:35;94707.59;;;2.25;100.00
7990;BME280;4040;42.848;23.034;2024-03-06T05:10:03;94712.06;;;2.40;100.00
7990;BME280;4040;42.848;23.034;2024-03-06T05:12:33;94716.25;;;2.41;100.00
7990;BME280;4040;42.848;23.034;2024-03-06T05:15:02;94710.94;;;2.41;100.00
7990;BME280;4040;42.848;23.034;2024-03-06T05:17:30;94716.44;;;2.51;100.00
7990;BME280;4040;42.848;23.034;2024-03-06T05:19:57;94699.66;;;2.47;100.00
7990;BME280;4040;42.848;23.034;2024-03-06T05:22:24;94732.34;;;2.70;100.00
7990;BME280;4040;42.848;23.034;2024-03-06T05:24:52;94743.34;;;2.69;100.00
7990;BME280;4040;42.848;23.034;2024-03-06T05:27:20;94752.69;;;2.82;100.00
7990;BME280;4040;42.848;23.034;2024-03-06T05:29:48;94763.34;;;2.82;100.00
7990;BME280;4040;42.848;23.034;2024-03-06T05:32:17;94709.53;;;2.47;100.00
7990;BME280;4040;42.848;23.034;2024-03-06T05:34:44;94775.97;;;2.88;100.00
7990;BME280;4040;42.848;23.034;2024-03-06T05:37:11;94712.28;;;2.32;100.00
7990;BME280;4040;42.848;23.034;2024-03-06T05:39:39;94700.72;;;2.24;100.00
7990;BME280;4040;42.848;23.034;2024-03-06T05:42:08;94785.38;;;2.82;100.00
7990;BME280;4040;42.848;23.034;2024-03-06T05:44:35;94786.84;;;2.80;100.00
7990;BME280;4040;42.848;23.034;2024-03-06T05:47:03;94790.81;;;2.67;100.00
7990;BME280;4040;42.848;23.034;2024-03-06T05:49:34;94742.41;;;2.20;100.00
7990;BME280;4040;42.848;23.034;2024-03-06T05:52:01;94793.47;;;2.48;100.00
7990;BME280;4040;42.848;23.034;2024-03-06T05:54:28;94762.19;;;2.23;100.00
7990;BME280;4040;42.848;23.034;2024-03-06T05:56:59;94799.03;;;2.43;100.00
7990;BME280;4040;42.848;23.034;2024-03-06T05:59:26;94745.69;;;2.14;100.00
7990;BME280;4040;42.848;23.034;2024-03-06T06:01:54;94772.53;;;2.28;100.00
7990;BME280;4040;42.848;23.034;2024-03-06T06:04:22;94751.50;;;2.19;100.00
7990;BME280;4040;42.848;23.034;2024-03-06T06:06:51;94758.50;;;2.27;100.00
7990;BME280;4040;42.848;23.034;2024-03-06T06:09:19;94638.69;;;1.56;100.00
7990;BME280;4040;42.848;23.034;2024-03-06T06:11:47;94774.00;;;2.63;100.00
7990;BME280;4040;42.848;23.034;2024-03-06T06:14:16;94689.13;;;2.13;100.00
7990;BME280;4040;42.848;23.034;2024-03-06T06:16:43;94776.63;;;2.82;100.00
7990;BME280;4040;42.848;23.034;2024-03-06T06:19:11;94771.56;;;2.96;100.00
7990;BME280;4040;42.848;23.034;2024-03-06T06:21:38;94775.34;;;3.17;100.00
7990;BME280;4040;42.848;23.034;2024-03-06T06:24:08;94775.00;;;3.41;100.00
7990;BME280;4040;42.848;23.034;2024-03-06T06:26:35;94778.56;;;3.75;100.00
7990;BME280;4040;42.848;23.034;2024-03-06T06:29:02;94757.44;;;3.89;100.00
7990;BME280;4040;42.848;23.034;2024-03-06T06:31:30;94799.31;;;4.44;100.00
7990;BME280;4040;42.848;23.034;2024-03-06T06:33:57;94811.19;;;4.82;100.00
7990;BME280;4040;42.848;23.034;2024-03-06T06:36:25;94818.88;;;5.67;100.00
7990;BME280;4040;42.848;23.034;2024-03-06T06:38:54;94837.13;;;6.59;100.00
7990;BME280;4040;42.848;23.034;2024-03-06T06:41:23;94782.84;;;6.62;100.00
7990;BME280;4040;42.848;23.034;2024-03-06T06:43:51;94750.25;;;6.32;100.00
7990;BME280;4040;42.848;23.034;2024-03-06T06:46:19;94786.00;;;6.85;100.00
7990;BME280;4040;42.848;23.034;2024-03-06T06:48:47;94813.69;;;7.45;100.00
7990;BME280;4040;42.848;23.034;2024-03-06T06:51:15;94827.91;;;8.33;100.00
7990;BME280;4040;42.848;23.034;2024-03-06T06:53:42;94830.09;;;8.73;100.00
7990;BME280;4040;42.848;23.034;2024-03-06T06:56:10;94774.53;;;8.63;100.00
7990;BME280;4040;42.848;23.034;2024-03-06T06:58:38;94821.53;;;9.71;100.00
7990;BME280;4040;42.848;23.034;2024-03-06T07:01:08;94835.31;;;9.80;100.00
7990;BME280;4040;42.848;23.034;2024-03-06T07:03:35;94819.44;;;10.43;100.00
7990;BME280;4040;42.848;23.034;2024-03-06T07:06:03;94731.16;;;9.36;100.00
7990;BME280;4040;42.848;23.034;2024-03-06T07:08:32;94708.06;;;9.46;100.00
7990;BME280;4040;42.848;23.034;2024-03-06T07:10:59;94838.91;;;10.13;100.00
7990;BME280;4040;42.848;23.034;2024-03-06T07:13:27;94833.00;;;11.06;100.00
7990;BME280;4040;42.848;23.034;2024-03-06T07:15:55;94827.97;;;11.68;100.00
7990;BME280;4040;42.848;23.034;2024-03-06T07:18:23;94827.69;;;12.35;100.00
7990;BME280;4040;42.848;23.034;2024-03-06T07:20:50;94828.38;;;13.04;100.00
7990;BME280;4040;42.848;23.034;2024-03-06T07:23:18;94818.50;;;13.53;97.08
7990;BME280;4040;42.848;23.034;2024-03-06T07:25:45;94837.50;;;14.81;79.81
7990;BME280;4040;42.848;23.034;2024-03-06T07:28:12;94821.31;;;16.12;66.45
7990;BME280;4040;42.848;23.034;2024-03-06T07:30:40;94826.84;;;16.93;60.24
7990;BME280;4040;42.848;23.034;2024-03-06T07:33:08;94811.94;;;17.40;55.89
7990;BME280;4040;42.848;23.034;2024-03-06T07:35:36;94820.53;;;17.91;52.99
7990;BME280;4040;42.848;23.034;2024-03-06T07:38:04;94822.84;;;17.71;52.77
7990;BME280;4040;42.848;23.034;2024-03-06T07:40:31;94826.34;;;17.07;53.33
7990;BME280;4040;42.848;23.034;2024-03-06T07:42:59;94804.63;;;16.60;54.34
7990;BME280;4040;42.848;23.034;2024-03-06T07:45:26;94830.59;;;16.74;55.20
7990;BME280;4040;42.848;23.034;2024-03-06T07:47:53;94829.09;;;17.50;53.20
7990;BME280;4040;42.848;23.034;2024-03-06T07:50:22;94824.19;;;17.66;53.25
7990;BME280;4040;42.848;23.034;2024-03-06T07:52:50;94827.38;;;17.95;51.49
7990;BME280;4040;42.848;23.034;2024-03-06T07:55:17;94827.50;;;18.22;51.38
7990;BME280;4040;42.848;23.034;2024-03-06T07:57:47;94815.19;;;18.57;49.96
7990;BME280;4040;42.848;23.034;2024-03-06T08:00:15;94815.84;;;19.51;47.35
7990;BME280;4040;42.848;23.034;2024-03-06T08:02:45;94819.38;;;20.02;45.80
7990;BME280;4040;42.848;23.034;2024-03-06T08:05:16;94824.00;;;21.07;44.75
7990;BME280;4040;42.848;23.034;2024-03-06T08:07:45;94822.97;;;22.15;42.23
7990;BME280;4040;42.848;23.034;2024-03-06T08:10:12;94806.59;;;21.34;42.10
7990;BME280;4040;42.848;23.034;2024-03-06T08:12:40;94821.38;;;22.72;41.60
7990;BME280;4040;42.848;23.034;2024-03-06T08:15:10;94810.69;;;23.34;38.95
7990;BME280;4040;42.848;23.034;2024-03-06T08:17:38;94810.84;;;23.96;38.70
7990;BME280;4040;42.848;23.034;2024-03-06T08:20:08;94816.97;;;23.60;38.15
7990;BME280;4040;42.848;23.034;2024-03-06T08:22:37;94806.97;;;22.77;39.17
7990;BME280;4040;42.848;23.034;2024-03-06T08:25:08;94815.06;;;23.06;38.57
7990;BME280;4040;42.848;23.034;2024-03-06T08:27:37;94813.63;;;22.71;39.36
7990;BME280;4040;42.848;23.034;2024-03-06T08:30:06;94807.25;;;23.64;37.87
7990;BME280;4040;42.848;23.034;2024-03-06T08:32:34;94806.28;;;23.93;36.89
7990;BME280;4040;42.848;23.034;2024-03-06T08:35:03;94811.84;;;22.04;39.17
7990;BME280;4040;42.848;23.034;2024-03-06T08:37:31;94805.66;;;21.51;40.85
7990;BME280;4040;42.848;23.034;2024-03-06T08:39:59;94810.53;;;21.85;41.50
7990;BME280;4040;42.848;23.034;2024-03-06T08:42:28;94809.31;;;22.50;40.00
7990;BME280;4040;42.848;23.034;2024-03-06T08:44:56;94807.66;;;22.23;40.23
7990;BME280;4040;42.848;23.034;2024-03-06T08:47:23;94807.13;;;21.90;40.92
7990;BME280;4040;42.848;23.034;2024-03-06T08:49:51;94801.00;;;20.35;42.52
7990;BME280;4040;42.848;23.034;2024-03-06T08:52:19;94819.16;;;18.92;45.31
7990;BME280;4040;42.848;23.034;2024-03-06T08:54:47;94819.91;;;17.35;48.99
7990;BME280;4040;42.848;23.034;2024-03-06T08:57:14;94807.78;;;17.48;50.29
7990;BME280;4040;42.848;23.034;2024-03-06T08:59:43;94819.13;;;17.13;51.56
7990;BME280;4040;42.848;23.034;2024-03-06T09:02:14;94819.25;;;17.09;52.36
7990;BME280;4040;42.848;23.034;2024-03-06T09:04:41;94809.72;;;17.26;51.36
7990;BME280;4040;42.848;23.034;2024-03-06T09:07:09;94805.19;;;17.75;50.34
7990;BME280;4040;42.848;23.034;2024-03-06T09:09:36;94808.97;;;17.47;52.19
7990;BME280;4040;42.848;23.034;2024-03-06T09:12:04;94807.78;;;18.18;49.96
7990;BME280;4040;42.848;23.034;2024-03-06T09:14:32;94798.03;;;18.38;49.68
7990;BME280;4040;42.848;23.034;2024-03-06T09:17:01;94803.00;;;19.93;46.74
7990;BME280;4040;42.848;23.034;2024-03-06T09:19:30;94788.44;;;20.75;42.93
7990;BME280;4040;42.848;23.034;2024-03-06T09:21:58;94788.84;;;20.36;43.70
7990;BME280;4040;42.848;23.034;2024-03-06T09:24:25;94801.88;;;19.67;45.41
7990;BME280;4040;42.848;23.034;2024-03-06T09:26:54;94800.81;;;19.55;45.18
7990;BME280;4040;42.848;23.034;2024-03-06T09:29:21;94796.88;;;20.72;43.36
7990;BME280;4040;42.848;23.034;2024-03-06T09:31:49;94793.44;;;22.39;39.64
7990;BME280;4040;42.848;23.034;2024-03-06T09:34:17;94784.56;;;23.95;37.04
7990;BME280;4040;42.848;23.034;2024-03-06T09:36:48;94785.38;;;24.01;36.30
7990;BME280;4040;42.848;23.034;2024-03-06T09:39:16;94787.75;;;25.67;34.27
7990;BME280;4040;42.848;23.034;2024-03-06T09:41:46;94733.13;;;26.04;32.72
7990;BME280;4040;42.848;23.034;2024-03-06T09:44:14;94769.28;;;26.06;33.13
7990;BME280;4040;42.848;23.034;2024-03-06T09:46:43;94726.59;;;25.85;32.44
7990;BME280;4040;42.848;23.034;2024-03-06T09:49:12;94778.16;;;25.35;33.66
7990;BME280;4040;42.848;23.034;2024-03-06T09:51:43;94766.06;;;24.68;33.91
7990;BME280;4040;42.848;23.034;2024-03-06T09:54:12;94775.06;;;24.27;34.84
7990;BME280;4040;42.848;23.034;2024-03-06T09:56:41;94772.75;;;26.12;33.01
7990;BME280;4040;42.848;23.034;2024-03-06T09:59:10;94768.47;;;26.43;31.58
7990;BME280;4040;42.848;23.034;2024-03-06T10:01:41;94762.13;;;25.39;32.75
7990;BME280;4040;42.848;23.034;2024-03-06T10:04:19;94768.75;;;26.45;32.53
7990;BME280;4040;42.848;23.034;2024-03-06T10:06:48;94761.81;;;27.01;31.04
7990;BME280;4040;42.848;23.034;2024-03-06T10:09:19;94752.78;;;25.20;32.31
7990;BME280;4040;42.848;23.034;2024-03-06T10:11:46;94759.09;;;23.04;35.01
7990;BME280;4040;42.848;23.034;2024-03-06T10:14:14;94754.50;;;24.53;33.76
7990;BME280;4040;42.848;23.034;2024-03-06T10:16:52;94752.66;;;26.60;31.90
7990;BME280;4040;42.848;23.034;2024-03-06T10:19:22;94735.13;;;26.09;32.03
7990;BME280;4040;42.848;23.034;2024-03-06T10:21:51;94751.84;;;23.46;34.86
7990;BME280;4040;42.848;23.034;2024-03-06T10:24:19;94715.94;;;22.64;36.11
7990;BME280;4040;42.848;23.034;2024-03-06T10:26:49;94742.78;;;23.40;35.05
7990;BME280;4040;42.848;23.034;2024-03-06T10:29:17;94732.56;;;25.56;32.83
7990;BME280;4040;42.848;23.034;2024-03-06T10:31:49;94731.31;;;25.46;32.51
7990;BME280;4040;42.848;23.034;2024-03-06T10:34:17;94740.75;;;23.60;34.15
7990;BME280;4040;42.848;23.034;2024-03-06T10:36:46;94733.34;;;25.67;32.14
7990;BME280;4040;42.848;23.034;2024-03-06T10:39:19;94725.34;;;27.19;29.98
7990;BME280;4040;42.848;23.034;2024-03-06T10:41:51;94725.69;;;27.45;29.49
7990;BME280;4040;42.848;23.034;2024-03-06T10:44:21;94717.94;;;26.76;30.44
7990;BME280;4040;42.848;23.034;2024-03-06T10:46:54;94723.19;;;25.15;31.65
7990;BME280;4040;42.848;23.034;2024-03-06T10:49:24;94710.59;;;26.95;29.89
7990;BME280;4040;42.848;23.034;2024-03-06T10:51:57;94705.28;;;27.02;29.38
7990;BME280;4040;42.848;23.034;2024-03-06T10:54:28;94702.66;;;28.55;29.33
7990;BME280;4040;42.848;23.034;2024-03-06T10:56:58;94695.94;;;28.69;28.97
7990;BME280;4040;42.848;23.034;2024-03-06T10:59:28;94697.22;;;29.66;26.57
7990;BME280;4040;42.848;23.034;2024-03-06T11:01:55;94692.19;;;27.08;28.43
7990;BME280;4040;42.848;23.034;2024-03-06T11:04:25;94691.72;;;22.08;33.83
7990;BME280;4040;42.848;23.034;2024-03-06T11:06:54;94697.69;;;20.53;36.08
7990;BME280;4040;42.848;23.034;2024-03-06T11:09:22;94680.03;;;18.83;37.64
7990;BME280;4040;42.848;23.034;2024-03-06T11:11:52;94688.94;;;19.19;37.79
7990;BME280;4040;42.848;23.034;2024-03-06T11:14:21;94679.06;;;19.04;38.28
7990;BME280;4040;42.848;23.034;2024-03-06T11:16:57;94673.66;;;21.38;36.01
7990;BME280;4040;42.848;23.034;2024-03-06T11:19:26;94661.53;;;24.43;31.96
7990;BME280;4040;42.848;23.034;2024-03-06T11:21:53;94661.28;;;23.99;32.96
7990;BME280;4040;42.848;23.034;2024-03-06T11:24:22;94638.50;;;22.80;34.04
7990;BME280;4040;42.848;23.034;2024-03-06T11:26:55;94663.25;;;21.42;35.39
7990;BME280;4040;42.848;23.034;2024-03-06T11:29:26;94671.84;;;18.65;36.92
7990;BME280;4040;42.848;23.034;2024-03-06T11:32:06;94663.66;;;18.56;37.95
7990;BME280;4040;42.848;23.034;2024-03-06T11:34:36;94665.41;;;19.22;37.54
7990;BME280;4040;42.848;23.034;2024-03-06T11:37:04;94553.97;;;18.07;38.46
7990;BME280;4040;42.848;23.034;2024-03-06T11:39:36;94589.69;;;18.09;39.32
7990;BME280;4040;42.848;23.034;2024-03-06T11:42:06;94553.53;;;18.35;38.66
7990;BME280;4040;42.848;23.034;2024-03-06T11:44:35;94629.84;;;18.80;40.01
7990;BME280;4040;42.848;23.034;2024-03-06T11:47:04;94639.25;;;19.39;39.16
7990;BME280;4040;42.848;23.034;2024-03-06T11:49:33;94613.34;;;19.67;38.38
7990;BME280;4040;42.848;23.034;2024-03-06T11:52:03;94640.88;;;19.04;37.15
7990;BME280;4040;42.848;23.034;2024-03-06T11:54:33;94636.38;;;18.47;38.12
7990;BME280;4040;42.848;23.034;2024-03-06T11:57:02;94631.03;;;17.90;38.88
7990;BME280;4040;42.848;23.034;2024-03-06T11:59:33;94637.22;;;17.81;40.63
7990;BME280;4040;42.848;23.034;2024-03-06T12:02:02;94634.53;;;18.17;38.73
7990;BME280;4040;42.848;23.034;2024-03-06T12:04:31;94619.69;;;18.00;40.04
7990;BME280;4040;42.848;23.034;2024-03-06T12:07:00;94627.56;;;17.89;41.29
7990;BME280;4040;42.848;23.034;2024-03-06T12:09:30;94625.81;;;17.25;42.10
7990;BME280;4040;42.848;23.034;2024-03-06T12:11:58;94632.53;;;17.03;42.53
7990;BME280;4040;42.848;23.034;2024-03-06T12:14:25;94628.53;;;16.30;48.08
7990;BME280;4040;42.848;23.034;2024-03-06T12:16:58;94642.13;;;15.25;51.62
7990;BME280;4040;42.848;23.034;2024-03-06T12:19:26;94626.56;;;14.76;54.88
7990;BME280;4040;42.848;23.034;2024-03-06T12:21:55;94639.34;;;14.63;58.05
7990;BME280;4040;42.848;23.034;2024-03-06T12:24:23;94640.72;;;14.55;59.69
7990;BME280;4040;42.848;23.034;2024-03-06T12:26:59;94647.63;;;14.15;65.88
7990;BME280;4040;42.848;23.034;2024-03-06T12:29:28;94639.25;;;14.09;69.44
7990;BME280;4040;42.848;23.034;2024-03-06T12:31:58;94637.63;;;14.28;68.30
7990;BME280;4040;42.848;23.034;2024-03-06T12:34:25;94637.06;;;14.33;66.12
7990;BME280;4040;42.848;23.034;2024-03-06T12:43:10;94648.34;;;14.03;67.01
7990;BME280;4040;42.848;23.034;2024-03-06T12:45:38;94639.28;;;14.38;66.68
7990;BME280;4040;42.848;23.034;2024-03-06T12:48:06;94638.53;;;14.91;63.03
7990;BME280;4040;42.848;23.034;2024-03-06T12:50:34;94638.31;;;15.47;58.93
7990;BME280;4040;42.848;23.034;2024-03-06T12:53:01;94645.78;;;15.81;56.66
7990;BME280;4040;42.848;23.034;2024-03-06T12:55:30;94633.34;;;16.26;54.85
7990;BME280;4040;42.848;23.034;2024-03-06T12:57:58;94640.94;;;16.31;56.51
7990;BME280;4040;42.848;23.034;2024-03-06T13:00:27;94644.88;;;16.73;56.82
7990;BME280;4040;42.848;23.034;2024-03-06T13:02:54;94633.84;;;16.46;55.77
7990;BME280;4040;42.848;23.034;2024-03-06T13:05:22;94647.34;;;16.80;57.62
7990;BME280;4040;42.848;23.034;2024-03-06T13:07:49;94653.56;;;16.25;60.98
7990;BME280;4040;42.848;23.034;2024-03-06T13:10:16;94660.69;;;15.51;64.65
7990;BME280;4040;42.848;23.034;2024-03-06T13:12:44;94647.19;;;14.98;70.91
7990;BME280;4040;42.848;23.034;2024-03-06T13:15:11;94658.38;;;14.47;81.58
7990;BME280;4040;42.848;23.034;2024-03-06T13:17:40;94653.22;;;14.65;91.43
7990;BME280;4040;42.848;23.034;2024-03-06T13:20:08;94655.94;;;14.24;88.86
7990;BME280;4040;42.848;23.034;2024-03-06T13:22:37;94651.34;;;14.21;77.77